Miami International Airport
KMIA : now visible

Airfield :











YOU CAN JOIN US ON...

 
LOGIN :

Register | Disclaimer

   EN    FR    IT 

 









Legend :    VFR   Marginal VFR   IFR   Intensive IFR   Very Intensive IFR
Visi :
Ceiling :
>= 8 km
>= 3000ft
5 to 8 km
1000 to 3000 ft
1500m to 5 km
500 to 1000 ft
800 to 1500m
200 to 500 ft
< 800m
< 200 ft
Symbols :   Thunderstorms  Fog  Heavy snow  Heavy precipitations  Wind > 20 kt







- Airport Elevation : 8 ft
- IATA code : MIA


KMIA - Miami International

CURRENT METAR :
  • 200953Z 05008KT 10SM SCT028 BKN035 BKN075 27/21 A2994 RMK AO2 RAB26E45 SLP139 P0000 T02670206

EXPIRED METARs :
  • 200853Z 05008KT 10SM SCT028 BKN033 BKN042 27/20 A2993 RMK AO2 SLP135 T02720200 56009
  • 200753Z 05011KT 10SM SCT028 SCT050 SCT085 27/21 A2994 RMK AO2 SLP138 T02720206

TAF KMIA
Valid from the 20 at 09:00 until the 21 at 12:00 UTC


200850Z 2009/2112 05013KT P6SM VCSH SCT030 SCT050
FM201500 06015G25KT P6SM VCSH SCT030 BKN050
No reported NOTAMs for that airfield.



MET'MAP, your aeronautical weather chart ! - Copyright ORBIFLY December 2007 - Disclaimer

ORBIFLY MET'MAP TEAM :

Programming & Development : Alexandra Zaïnal
Concept & Development : Baudouin d'Aumeries
Co-Development & Prog : Marc-Olivier Méhu
Technical & hardware support : Manuel Goepfert

Contact : metmap@orbifly.com




SOURCES & CREDITS :

   NOAA       Earth
Advisory